Time;durP1;ratioP1;P1;durP2;ratioP2;P2;SDS_P1;SDS_P2;PMS_P1;PMS_P2;Temp;Humidity;BMP_temperature;BMP_pressure;BME280_temperature;BME280_humidity;BME280_pressure;Samples;Min_cycle;Max_cycle;Signal;HPM_P1;HPM_P2
2022/11/05 00:10:11;;;;;;;38.00;35.10;;;10.10;99.40;;;;;;4963643;28;20041;-83
2022/11/05 00:18:07;;;;;;;38.88;35.90;;;10.00;99.70;;;;;;4987323;28;20057;-83
2022/11/05 00:20:33;;;;;;;40.83;37.80;;;10.10;99.30;;;;;;4993045;28;20505;-82
2022/11/05 00:25:56;;;;;;;34.13;31.33;;;10.00;99.40;;;;;;4999016;28;20036;-83
2022/11/05 00:28:22;;;;;;;40.72;37.58;;;10.10;99.40;;;;;;4997819;28;20501;-82
2022/11/05 00:30:48;;;;;;;37.03;34.03;;;10.10;99.90;;;;;;4975562;28;20038;-83
2022/11/05 00:33:15;;;;;;;34.42;32.13;;;10.10;99.10;;;;;;4992822;28;20038;-83
2022/11/05 00:35:41;;;;;;;34.35;31.50;;;10.10;99.00;;;;;;4987913;28;20411;-83
2022/11/05 00:38:08;;;;;;;33.55;31.15;;;10.10;99.00;;;;;;4971361;28;20039;-82
2022/11/05 00:40:34;;;;;;;34.08;31.50;;;10.10;99.10;;;;;;4990225;28;20046;-82
2022/11/05 00:45:44;;;;;;;35.00;32.17;;;9.90;99.50;;;;;;4990087;28;20427;-82
2022/11/05 00:50:55;;;;;;;35.15;31.80;;;9.80;99.70;;;;;;4995897;28;20103;-83
2022/11/05 00:53:21;;;;;;;32.55;29.75;;;9.70;99.60;;;;;;4993340;28;20494;-83
2022/11/05 00:55:47;;;;;;;32.40;29.73;;;9.70;99.70;;;;;;4976724;28;20037;-83
2022/11/05 00:58:17;;;;;;;33.65;31.00;;;9.70;99.70;;;;;;4978312;28;20480;-83
2022/11/05 01:00:47;;;;;;;32.97;29.88;;;9.70;99.50;;;;;;4981014;28;20406;-83
2022/11/05 01:03:14;;;;;;;32.50;29.52;;;9.70;99.50;;;;;;4980085;28;20041;-83
2022/11/05 01:05:43;;;;;;;29.25;26.85;;;9.60;99.50;;;;;;4972294;28;20027;-83
2022/11/05 01:08:10;;;;;;;29.17;26.30;;;9.60;99.60;;;;;;4974630;28;20042;-83
2022/11/05 01:10:43;;;;;;;25.38;23.15;;;9.60;99.70;;;;;;4992754;28;20049;-83
2022/11/05 01:13:09;;;;;;;27.85;25.55;;;9.60;99.70;;;;;;4976527;28;20034;-83
2022/11/05 01:15:36;;;;;;;30.23;27.83;;;9.60;99.70;;;;;;4984933;28;20042;-82
2022/11/05 01:18:02;;;;;;;30.13;27.55;;;9.60;99.50;;;;;;4988669;28;20073;-82
2022/11/05 01:20:28;;;;;;;28.95;26.67;;;9.60;99.40;;;;;;4990946;28;20038;-82
2022/11/05 01:22:54;;;;;;;30.30;27.55;;;9.60;99.20;;;;;;4984330;28;20061;-83
2022/11/05 01:25:20;;;;;;;29.25;26.80;;;9.60;99.20;;;;;;5002922;28;20038;-83
2022/11/05 01:27:46;;;;;;;26.17;24.20;;;9.50;99.20;;;;;;4969955;28;20071;-83
2022/11/05 01:30:13;;;;;;;26.40;24.08;;;9.60;99.20;;;;;;4971367;28;20071;-82
2022/11/05 01:32:39;;;;;;;27.95;25.20;;;9.50;99.40;;;;;;4972864;28;20034;-83
2022/11/05 01:35:06;;;;;;;25.38;23.13;;;9.50;99.40;;;;;;4985748;28;20050;-82
2022/11/05 01:37:33;;;;;;;26.13;23.42;;;9.50;99.50;;;;;;4990476;28;20061;-83
2022/11/05 01:39:59;;;;;;;24.90;22.42;;;9.40;99.70;;;;;;4992485;28;20034;-83
2022/11/05 01:42:26;;;;;;;24.20;22.00;;;9.40;99.60;;;;;;4988327;28;20387;-83
2022/11/05 01:45:11;;;;;;;23.63;21.42;;;9.40;99.70;;;;;;4976941;28;20035;-82
2022/11/05 01:47:56;;;;;;;23.17;21.20;;;9.40;99.70;;;;;;4974985;28;20053;-83
2022/11/05 01:50:25;;;;;;;24.30;21.58;;;9.40;99.60;;;;;;4994470;28;20034;-82
2022/11/05 01:52:53;;;;;;;23.55;21.63;;;9.40;99.70;;;;;;4992219;28;20037;-83
2022/11/05 01:55:22;;;;;;;24.52;22.30;;;9.40;99.80;;;;;;4986711;28;20507;-83
2022/11/05 01:57:48;;;;;;;24.25;22.15;;;9.40;99.70;;;;;;4979474;28;20479;-83
2022/11/05 02:00:15;;;;;;;23.75;21.55;;;9.50;99.70;;;;;;4989851;28;20046;-82
2022/11/05 02:02:42;;;;;;;23.80;20.80;;;9.50;99.80;;;;;;4985429;28;20050;-83
2022/11/05 02:05:09;;;;;;;23.80;21.35;;;9.40;99.90;;;;;;4974918;28;20034;-82
2022/11/05 02:07:35;;;;;;;23.70;21.48;;;9.40;99.90;;;;;;4990257;28;20523;-83
2022/11/05 02:10:09;;;;;;;24.48;22.20;;;9.40;99.90;;;;;;4991065;28;20027;-83
2022/11/05 02:12:36;;;;;;;24.90;22.63;;;9.50;99.90;;;;;;4990513;28;20027;-83
2022/11/05 02:15:03;;;;;;;24.67;22.52;;;9.50;99.90;;;;;;4989535;28;20026;-83
2022/11/05 02:17:54;;;;;;;24.85;22.73;;;9.50;99.90;;;;;;4981480;28;20127;-82
2022/11/05 02:20:34;;;;;;;24.35;21.90;;;9.60;99.90;;;;;;4960737;28;20039;-82
2022/11/05 02:23:38;;;;;;;25.02;22.45;;;9.60;99.90;;;;;;4990982;28;20039;-83
2022/11/05 02:26:10;;;;;;;25.63;23.52;;;9.70;99.90;;;;;;4980079;28;20033;-82
2022/11/05 02:28:55;;;;;;;25.83;23.55;;;9.60;99.90;;;;;;4985903;28;20053;-82
2022/11/05 02:31:35;;;;;;;23.85;21.65;;;9.60;99.90;;;;;;4989499;28;20046;-82
2022/11/05 02:34:39;;;;;;;23.30;21.30;;;9.50;99.90;;;;;;4994516;28;20031;-82
2022/11/05 02:37:17;;;;;;;24.00;21.80;;;9.60;99.90;;;;;;4969844;28;20046;-82
2022/11/05 02:39:55;;;;;;;23.00;20.67;;;9.60;99.90;;;;;;4961421;28;20030;-82
2022/11/05 02:42:49;;;;;;;27.08;24.55;;;9.70;99.90;;;;;;4976044;28;20142;-82
2022/11/05 02:45:42;;;;;;;22.38;20.45;;;9.80;99.90;;;;;;4958296;28;20069;-82
2022/11/05 02:48:53;;;;;;;24.80;20.10;;;9.90;99.90;;;;;;4955617;28;20042;-82
2022/11/05 02:51:30;;;;;;;24.35;19.65;;;9.90;99.90;;;;;;4942969;28;20035;-83
2022/11/05 02:54:05;;;;;;;21.52;19.58;;;9.90;99.90;;;;;;4976943;28;20048;-83
2022/11/05 02:56:34;;;;;;;22.15;20.02;;;9.80;99.90;;;;;;4992697;28;20610;-83
2022/11/05 02:59:00;;;;;;;22.88;20.67;;;9.80;99.90;;;;;;4973397;28;20034;-82
2022/11/05 03:01:26;;;;;;;20.98;18.98;;;9.80;99.90;;;;;;4977878;28;20050;-82
2022/11/05 03:03:57;;;;;;;21.80;19.55;;;9.80;99.90;;;;;;4966601;28;20053;-83
2022/11/05 03:06:29;;;;;;;21.42;19.25;;;9.90;99.90;;;;;;4965673;28;20045;-83
2022/11/05 03:09:10;;;;;;;20.48;18.73;;;9.90;99.90;;;;;;4981582;28;20034;-83
2022/11/05 03:11:59;;;;;;;;;;;10.00;99.90;;;;;;4990617;28;20542;-83
2022/11/05 03:14:50;;;;;;;22.17;18.17;;;9.90;99.90;;;;;;4991585;28;19909;-83
2022/11/05 03:17:41;;;;;;;23.65;18.27;;;9.90;99.90;;;;;;4989531;28;20050;-82
2022/11/05 03:20:24;;;;;;;21.00;17.92;;;9.90;99.90;;;;;;4977790;28;20050;-83
2022/11/05 03:22:57;;;;;;;22.35;20.02;;;9.90;99.90;;;;;;4967557;28;20034;-83
2022/11/05 03:25:23;;;;;;;23.70;20.35;;;9.80;99.90;;;;;;4981820;28;20045;-82
2022/11/05 03:27:54;;;;;;;21.83;19.63;;;9.80;99.90;;;;;;4959089;28;20050;-83
2022/11/05 03:30:20;;;;;;;21.95;19.95;;;9.80;99.90;;;;;;4974234;28;20030;-83
2022/11/05 03:32:49;;;;;;;22.83;20.45;;;9.80;99.90;;;;;;4991900;28;20046;-83
2022/11/05 03:35:24;;;;;;;24.15;20.58;;;9.80;99.90;;;;;;4977712;28;20054;-83
2022/11/05 03:37:53;;;;;;;25.08;20.95;;;9.90;99.90;;;;;;4960442;28;20026;-83
2022/11/05 03:40:19;;;;;;;22.85;20.60;;;9.90;99.90;;;;;;4983274;28;20031;-83
2022/11/05 03:42:47;;;;;;;20.00;18.40;;;9.90;99.90;;;;;;4991818;28;20030;-82
2022/11/05 03:45:20;;;;;;;20.92;19.05;;;9.90;99.90;;;;;;4982446;28;20030;-83
2022/11/05 03:47:47;;;;;;;22.10;19.95;;;9.90;99.90;;;;;;4962804;28;20434;-83
2022/11/05 03:50:39;;;;;;;23.00;20.80;;;10.00;99.90;;;;;;4993095;28;20030;-83
2022/11/05 03:53:16;;;;;;;21.85;19.85;;;10.10;99.90;;;;;;4963310;28;20471;-83
2022/11/05 03:56:12;;;;;;;21.25;19.38;;;10.10;99.90;;;;;;4972455;28;20043;-83
2022/11/05 03:58:41;;;;;;;20.83;19.05;;;10.20;99.90;;;;;;4975239;28;20517;-83
2022/11/05 04:01:13;;;;;;;25.17;19.13;;;10.20;99.90;;;;;;4972090;28;20038;-82
2022/11/05 04:03:39;;;;;;;22.27;20.00;;;10.10;99.90;;;;;;4979198;28;20506;-83
2022/11/05 04:14:21;;;;;;;20.55;18.95;;;10.00;99.90;;;;;;4994090;28;20041;-81
2022/11/05 04:17:05;;;;;;;20.98;18.95;;;9.90;99.90;;;;;;4968160;28;20039;-82
2022/11/05 04:25:06;;;;;;;21.63;19.55;;;9.90;99.90;;;;;;4985543;28;20037;-83
2022/11/05 04:27:32;;;;;;;31.52;23.20;;;9.90;99.90;;;;;;4962277;28;20058;-83
2022/11/05 04:33:00;;;;;;;30.20;22.50;;;9.90;99.90;;;;;;4996138;28;20064;-84
2022/11/05 04:35:31;;;;;;;29.98;22.58;;;10.00;99.90;;;;;;4991887;28;20054;-84
2022/11/05 04:37:57;;;;;;;22.75;20.65;;;10.00;99.90;;;;;;4979768;28;20413;-84
2022/11/05 04:40:24;;;;;;;21.27;18.95;;;9.90;99.90;;;;;;4995593;28;20037;-83
2022/11/05 04:42:50;;;;;;;23.63;21.60;;;9.80;99.90;;;;;;4995094;28;20037;-84
2022/11/05 04:45:16;;;;;;;23.30;21.10;;;9.80;99.90;;;;;;4999475;28;20466;-84
2022/11/05 04:47:42;;;;;;;23.73;21.48;;;9.90;99.90;;;;;;4993250;28;20034;-83
2022/11/05 04:50:10;;;;;;;23.88;21.65;;;9.90;99.90;;;;;;4991967;28;20057;-83
2022/11/05 04:52:37;;;;;;;25.17;22.75;;;9.90;99.90;;;;;;4975938;28;20150;-83
2022/11/05 04:55:03;;;;;;;24.77;22.73;;;9.90;99.90;;;;;;4991108;28;20038;-83
2022/11/05 04:57:32;;;;;;;23.15;20.83;;;9.90;99.90;;;;;;4989444;28;20487;-83
2022/11/05 04:59:58;;;;;;;43.78;20.95;;;9.90;99.90;;;;;;4973737;28;20026;-83
2022/11/05 05:02:24;;;;;;;23.77;21.38;;;9.90;99.90;;;;;;4987012;28;20038;-83
2022/11/05 05:04:50;;;;;;;23.00;20.13;;;9.80;99.90;;;;;;4993289;28;20030;-83
2022/11/05 05:07:16;;;;;;;25.90;23.55;;;9.80;99.90;;;;;;4992766;28;20517;-83
2022/11/05 05:09:43;;;;;;;24.15;21.65;;;9.90;99.90;;;;;;4992492;28;20027;-83
2022/11/05 05:12:09;;;;;;;24.63;22.00;;;9.90;99.90;;;;;;4988435;28;20475;-83
2022/11/05 05:14:35;;;;;;;24.60;22.35;;;9.90;99.90;;;;;;4972901;28;20030;-84
2022/11/05 05:17:01;;;;;;;24.27;21.90;;;9.80;99.90;;;;;;4991802;28;20042;-84
2022/11/05 05:19:27;;;;;;;24.20;21.95;;;9.80;99.90;;;;;;4996668;28;20030;-83
2022/11/05 05:21:53;;;;;;;25.80;23.35;;;9.80;99.90;;;;;;4991286;28;20037;-83
2022/11/05 05:24:23;;;;;;;58.55;24.75;;;9.80;99.90;;;;;;4991281;28;20026;-83
2022/11/05 05:26:49;;;;;;;26.80;24.57;;;9.80;99.90;;;;;;4991066;28;20386;-83
2022/11/05 05:29:16;;;;;;;26.42;23.90;;;9.80;99.90;;;;;;4971792;28;20050;-83
2022/11/05 05:31:42;;;;;;;26.13;23.60;;;9.90;99.90;;;;;;4990733;28;20035;-83
2022/11/05 05:34:12;;;;;;;24.83;22.75;;;9.80;99.90;;;;;;4979028;28;20495;-84
2022/11/05 05:36:38;;;;;;;27.02;24.67;;;9.80;99.90;;;;;;4979908;28;20034;-83
2022/11/05 05:39:05;;;;;;;25.92;24.02;;;9.80;99.90;;;;;;4991558;28;20026;-83
2022/11/05 05:41:31;;;;;;;26.30;24.08;;;9.80;99.90;;;;;;4974915;28;20047;-83
2022/11/05 05:43:58;;;;;;;26.40;24.42;;;9.80;99.90;;;;;;4991628;28;20049;-83
2022/11/05 05:46:24;;;;;;;27.50;25.10;;;10.00;99.90;;;;;;4991498;28;20415;-83
2022/11/05 05:48:50;;;;;;;26.55;24.00;;;10.00;99.90;;;;;;4992343;28;20050;-83
2022/11/05 05:51:17;;;;;;;24.80;22.52;;;10.00;99.90;;;;;;4991747;28;20027;-83
2022/11/05 05:53:43;;;;;;;23.88;21.60;;;10.00;99.90;;;;;;4990473;28;20782;-83
2022/11/05 05:56:13;;;;;;;25.40;23.13;;;9.90;99.90;;;;;;4971141;28;20047;-83
2022/11/05 05:58:40;;;;;;;26.50;24.35;;;9.90;99.90;;;;;;4974875;28;20042;-83
2022/11/05 06:01:08;;;;;;;28.48;25.95;;;9.80;99.90;;;;;;4991011;28;20031;-83
2022/11/05 06:03:34;;;;;;;28.63;25.80;;;9.80;99.90;;;;;;4992324;28;20037;-82
2022/11/05 06:06:07;;;;;;;29.67;26.73;;;9.80;99.90;;;;;;4998402;28;20053;-82
2022/11/05 06:08:33;;;;;;;29.33;26.65;;;9.90;99.90;;;;;;5002873;28;20038;-83
2022/11/05 06:11:00;;;;;;;29.70;27.08;;;9.90;99.90;;;;;;4993827;28;20037;-83
2022/11/05 06:13:26;;;;;;;27.58;24.90;;;10.00;99.90;;;;;;4995121;28;20034;-83
2022/11/05 06:15:52;;;;;;;27.30;25.23;;;9.90;99.90;;;;;;4979206;28;20038;-83
2022/11/05 06:18:18;;;;;;;26.77;24.50;;;10.00;99.90;;;;;;4976616;28;20047;-82
2022/11/05 06:20:44;;;;;;;25.20;22.50;;;10.00;99.90;;;;;;5004991;28;20033;-83
2022/11/05 06:23:10;;;;;;;27.08;24.52;;;10.00;99.90;;;;;;4996035;28;20041;-83
2022/11/05 06:25:37;;;;;;;27.77;25.48;;;9.90;99.90;;;;;;5013120;28;20037;-83
2022/11/05 06:28:03;;;;;;;29.30;26.23;;;9.90;99.90;;;;;;5014054;28;20041;-83
2022/11/05 06:30:29;;;;;;;29.42;26.50;;;9.90;99.90;;;;;;4973912;28;20085;-82
2022/11/05 06:32:55;;;;;;;27.80;25.70;;;9.90;99.90;;;;;;4976258;28;20021;-82
2022/11/05 06:35:21;;;;;;;27.02;24.92;;;9.90;99.90;;;;;;4958769;28;20050;-81
2022/11/05 06:37:48;;;;;;;28.98;26.27;;;9.90;99.90;;;;;;4975994;28;20027;-82
2022/11/05 06:40:14;;;;;;;29.83;27.35;;;9.80;99.90;;;;;;4977062;28;20052;-82
2022/11/05 06:42:40;;;;;;;29.05;26.58;;;9.80;99.90;;;;;;4995557;28;20034;-82
2022/11/05 06:45:06;;;;;;;30.10;27.13;;;9.90;99.90;;;;;;4994547;28;20395;-82
2022/11/05 06:47:33;;;;;;;29.30;26.55;;;9.90;99.90;;;;;;4978151;28;20038;-82
2022/11/05 06:49:59;;;;;;;29.63;26.90;;;10.00;99.90;;;;;;4977614;28;20395;-82
2022/11/05 06:52:26;;;;;;;29.88;27.08;;;10.00;99.90;;;;;;4994431;28;20026;-82
2022/11/05 06:54:52;;;;;;;28.98;26.58;;;10.00;99.90;;;;;;4995399;28;20456;-83
2022/11/05 06:57:18;;;;;;;29.83;26.85;;;10.00;99.90;;;;;;4995847;28;20042;-82
2022/11/05 06:59:44;;;;;;;163.77;32.72;;;9.90;99.90;;;;;;4992606;28;20510;-81
2022/11/05 07:02:12;;;;;;;30.50;27.77;;;9.80;99.90;;;;;;4995372;28;20046;-82
2022/11/05 07:04:38;;;;;;;28.85;26.45;;;9.80;99.90;;;;;;4991413;28;20042;-82
2022/11/05 07:07:04;;;;;;;28.88;26.38;;;9.90;99.90;;;;;;4990159;28;20041;-82
2022/11/05 07:09:30;;;;;;;29.08;26.55;;;9.90;99.90;;;;;;4970084;28;20033;-81
2022/11/05 07:11:56;;;;;;;28.02;25.45;;;10.00;99.90;;;;;;4993860;28;20105;-81
2022/11/05 07:14:22;;;;;;;29.30;26.40;;;10.00;99.90;;;;;;4994785;28;20043;-81
2022/11/05 07:16:48;;;;;;;30.40;27.38;;;10.00;99.90;;;;;;4970693;28;20046;-80
2022/11/05 07:19:14;;;;;;;30.27;27.35;;;9.90;99.90;;;;;;4988925;28;20038;-81
2022/11/05 07:21:41;;;;;;;30.50;27.38;;;10.00;99.90;;;;;;4986473;28;20487;-79
2022/11/05 07:24:07;;;;;;;28.15;25.17;;;10.00;99.90;;;;;;4987077;28;20042;-78
2022/11/05 07:26:33;;;;;;;30.00;27.08;;;10.10;99.90;;;;;;4985931;28;20109;-80
2022/11/05 07:28:59;;;;;;;27.67;25.08;;;10.10;99.90;;;;;;4974469;28;20058;-80
2022/11/05 07:31:25;;;;;;;29.08;26.88;;;10.10;99.90;;;;;;4974636;28;20039;-79
2022/11/05 07:33:51;;;;;;;29.67;26.73;;;10.00;99.90;;;;;;4976191;28;20042;-80
2022/11/05 07:36:17;;;;;;;26.88;24.73;;;9.90;99.90;;;;;;4989673;28;20042;-82
2022/11/05 07:38:43;;;;;;;27.80;24.92;;;9.70;99.90;;;;;;4994655;28;20034;-81
2022/11/05 07:41:09;;;;;;;29.13;26.33;;;9.60;99.90;;;;;;4994004;28;20029;-80
2022/11/05 07:43:36;;;;;;;29.00;26.17;;;9.60;99.90;;;;;;4992359;28;20034;-79
2022/11/05 07:46:02;;;;;;;29.63;26.58;;;9.60;99.90;;;;;;4987324;28;20027;-78
2022/11/05 07:48:28;;;;;;;27.33;24.80;;;9.70;99.90;;;;;;4993741;28;20498;-80
2022/11/05 07:50:54;;;;;;;66.15;27.67;;;9.80;99.90;;;;;;4980053;28;20030;-79
2022/11/05 07:53:20;;;;;;;30.00;24.17;;;9.90;99.90;;;;;;4990379;28;20402;-78
2022/11/05 07:55:46;;;;;;;27.15;24.20;;;10.00;99.90;;;;;;4979699;28;20040;-78
2022/11/05 07:58:13;;;;;;;27.05;24.48;;;10.10;99.90;;;;;;4974891;28;20383;-77
2022/11/05 08:00:39;;;;;;;27.23;24.98;;;10.10;99.90;;;;;;4973538;28;20241;-79
2022/11/05 08:03:07;;;;;;;26.70;24.33;;;10.30;99.90;;;;;;4986534;28;20046;-78
2022/11/05 08:05:35;;;;;;;31.95;24.52;;;10.20;99.90;;;;;;4975562;28;20041;-78
2022/11/05 08:08:01;;;;;;;27.70;24.73;;;10.20;99.90;;;;;;4977144;28;20041;-79
2022/11/05 08:10:27;;;;;;;26.05;23.48;;;10.30;99.90;;;;;;4993405;28;20030;-78
2022/11/05 08:12:54;;;;;;;23.85;21.77;;;10.20;99.90;;;;;;4974988;28;20479;-81
2022/11/05 08:15:20;;;;;;;26.35;24.05;;;10.10;99.90;;;;;;4992878;28;20029;-81
2022/11/05 08:17:47;;;;;;;25.85;23.88;;;10.00;99.90;;;;;;4984495;28;20038;-81
2022/11/05 08:20:13;;;;;;;25.70;23.10;;;10.10;99.90;;;;;;4995112;28;20030;-81
2022/11/05 08:22:45;;;;;;;27.92;22.58;;;10.30;99.90;;;;;;4974037;28;20061;-80
2022/11/05 08:25:11;;;;;;;24.27;22.15;;;10.30;99.90;;;;;;4973657;28;20360;-80
2022/11/05 08:27:38;;;;;;;24.45;22.13;;;10.40;99.90;;;;;;4973975;28;20033;-80
2022/11/05 08:30:05;;;;;;;24.40;21.98;;;10.50;99.90;;;;;;4991238;28;20038;-80
2022/11/05 08:32:31;;;;;;;24.63;22.30;;;10.50;99.90;;;;;;4992425;28;20057;-80
2022/11/05 08:34:57;;;;;;;24.67;22.52;;;10.60;99.90;;;;;;4993406;28;20034;-80
2022/11/05 08:37:23;;;;;;;24.95;22.55;;;10.70;99.90;;;;;;4990236;28;20046;-80
2022/11/05 08:39:50;;;;;;;24.30;22.00;;;10.70;99.90;;;;;;4991583;28;20041;-80
2022/11/05 08:42:16;;;;;;;25.77;23.70;;;10.80;99.90;;;;;;4986598;28;20463;-80
2022/11/05 08:44:42;;;;;;;26.15;23.90;;;10.80;99.90;;;;;;4990231;28;20423;-81
2022/11/05 08:47:08;;;;;;;29.48;26.27;;;10.80;99.90;;;;;;4982586;28;20030;-80
2022/11/05 08:49:34;;;;;;;33.08;29.50;;;10.80;99.90;;;;;;4984412;28;20395;-79
2022/11/05 08:52:00;;;;;;;41.53;37.22;;;10.80;99.90;;;;;;4966755;28;20023;-81
2022/11/05 08:54:26;;;;;;;35.25;31.42;;;10.80;99.90;;;;;;4956582;28;20388;-81
2022/11/05 08:56:52;;;;;;;70.85;54.13;;;10.90;99.90;;;;;;4973912;28;20027;-80
2022/11/05 08:59:18;;;;;;;62.92;49.92;;;10.90;99.90;;;;;;4979374;28;20038;-81
2022/11/05 09:01:45;;;;;;;28.17;25.60;;;11.00;99.90;;;;;;4954339;28;20188;-80
2022/11/05 09:04:11;;;;;;;26.63;24.23;;;11.10;99.90;;;;;;4972915;28;20045;-82
2022/11/05 09:06:37;;;;;;;28.35;25.65;;;11.20;99.90;;;;;;4972923;28;20137;-81
2022/11/05 09:09:03;;;;;;;32.30;29.52;;;11.10;99.90;;;;;;4955268;28;20066;-82
2022/11/05 09:11:29;;;;;;;31.25;28.40;;;11.10;99.90;;;;;;4975437;28;20386;-85
2022/11/05 09:13:58;;;;;;;27.83;24.83;;;11.10;99.90;;;;;;4991931;28;20394;-80
2022/11/05 09:16:24;;;;;;;71.05;49.83;;;11.20;99.90;;;;;;4968825;28;20034;-84
2022/11/05 09:18:50;;;;;;;37.53;32.05;;;11.30;99.90;;;;;;4978111;28;20046;-83
2022/11/05 09:21:17;;;;;;;24.75;21.80;;;11.40;99.90;;;;;;4959622;28;20038;-79
2022/11/05 09:23:44;;;;;;;21.70;19.40;;;11.50;99.90;;;;;;4991012;28;20030;-83
2022/11/05 09:26:11;;;;;;;24.67;22.45;;;11.60;99.90;;;;;;4995047;28;20364;-83
2022/11/05 09:28:37;;;;;;;21.33;19.20;;;11.70;99.90;;;;;;4974736;28;20054;-80
2022/11/05 09:31:07;;;;;;;20.52;18.70;;;11.80;99.90;;;;;;4990478;28;20055;-79
2022/11/05 09:33:34;;;;;;;21.83;19.75;;;11.90;99.90;;;;;;4992595;28;20037;-78
2022/11/05 09:36:00;;;;;;;21.25;19.25;;;11.90;99.90;;;;;;4987648;28;20372;-79
2022/11/05 09:38:26;;;;;;;22.38;19.98;;;12.00;99.90;;;;;;4973230;28;20038;-78
2022/11/05 09:41:00;;;;;;;24.90;20.27;;;12.00;99.90;;;;;;4972983;28;20033;-81
2022/11/05 09:43:50;;;;;;;21.05;18.98;;;12.00;99.90;;;;;;4984488;28;20033;-82
2022/11/05 09:46:25;;;;;;;21.38;19.63;;;12.10;99.90;;;;;;4956388;28;20042;-83
2022/11/05 09:48:55;;;;;;;21.65;19.88;;;12.20;99.90;;;;;;4978546;28;20042;-81
2022/11/05 09:51:21;;;;;;;24.17;22.27;;;12.30;99.90;;;;;;5008159;28;20506;-83
2022/11/05 09:53:47;;;;;;;21.00;19.48;;;12.30;99.90;;;;;;4998637;28;20037;-81
2022/11/05 09:56:30;;;;;;;25.23;23.00;;;12.40;99.90;;;;;;4997081;28;20137;-82
2022/11/05 09:59:05;;;;;;;27.17;24.52;;;12.50;99.90;;;;;;4989218;28;20030;-86
2022/11/05 10:01:33;;;;;;;32.72;29.67;;;12.60;99.90;;;;;;4981567;28;20387;-82
2022/11/05 10:04:01;;;;;;;30.20;27.10;;;12.70;99.90;;;;;;4999189;28;20033;-83
2022/11/05 10:06:27;;;;;;;25.65;23.27;;;12.80;99.90;;;;;;4994728;28;20390;-82
2022/11/05 10:09:04;;;;;;;29.77;27.08;;;13.00;99.90;;;;;;4961796;28;20042;-82
2022/11/05 10:11:43;;;;;;;27.45;25.20;;;13.10;99.90;;;;;;4995218;28;20033;-82
2022/11/05 10:14:18;;;;;;;36.35;33.15;;;13.20;99.90;;;;;;4981882;28;20437;-81
2022/11/05 10:16:48;;;;;;;28.73;25.65;;;13.20;99.90;;;;;;4977208;28;20034;-82
2022/11/05 10:19:23;;;;;;;25.92;23.17;;;13.30;99.90;;;;;;4993223;28;20038;-82
2022/11/05 10:21:53;;;;;;;24.85;22.60;;;13.40;99.90;;;;;;4986617;28;20026;-84
2022/11/05 10:24:19;;;;;;;37.63;34.42;;;13.40;99.90;;;;;;4974249;28;20034;-85
2022/11/05 10:26:47;;;;;;;31.70;28.88;;;13.40;99.90;;;;;;4965332;28;20027;-84
2022/11/05 10:29:25;;;;;;;26.55;24.58;;;13.50;99.90;;;;;;4980311;28;20034;-85
2022/11/05 10:31:52;;;;;;;37.83;35.00;;;13.60;99.90;;;;;;4984254;28;20372;-85
2022/11/05 10:34:19;;;;;;;37.85;34.72;;;13.70;99.90;;;;;;4983842;28;20043;-85
2022/11/05 10:36:45;;;;;;;39.08;36.13;;;13.70;99.90;;;;;;4974870;28;20487;-87
2022/11/05 10:39:14;;;;;;;44.40;40.90;;;13.80;99.90;;;;;;4961896;28;20030;-88
2022/11/05 10:42:02;;;;;;;42.75;39.55;;;13.90;99.90;;;;;;4984392;28;20064;-85
2022/11/05 10:44:35;;;;;;;44.17;40.83;;;14.00;99.90;;;;;;4976830;28;20046;-85
2022/11/05 10:47:07;;;;;;;46.60;43.25;;;14.10;99.90;;;;;;4988598;28;20035;-88
2022/11/05 10:49:42;;;;;;;44.17;40.75;;;14.10;99.90;;;;;;4994994;28;20038;-84
2022/11/05 10:52:35;;;;;;;43.38;40.03;;;14.20;99.90;;;;;;4994892;28;20490;-86
2022/11/05 10:55:12;;;;;;;34.47;32.20;;;14.30;99.90;;;;;;4975192;28;20039;-84
2022/11/05 10:57:39;;;;;;;39.17;36.25;;;14.30;99.90;;;;;;4960989;28;20030;-85
2022/11/05 11:00:15;;;;;;;33.63;31.05;;;14.30;99.90;;;;;;4979280;28;20490;-90
2022/11/05 11:02:55;;;;;;;29.70;27.67;;;14.30;99.90;;;;;;4977522;28;20038;-88
2022/11/05 11:05:25;;;;;;;35.55;33.28;;;14.40;99.90;;;;;;4994158;28;20395;-90
2022/11/05 11:08:10;;;;;;;34.35;31.70;;;14.50;99.90;;;;;;5000745;28;20471;-87
2022/11/05 11:10:50;;;;;;;27.75;25.65;;;14.60;99.90;;;;;;4973337;28;20522;-89
2022/11/05 11:13:21;;;;;;;24.27;22.30;;;14.70;99.20;;;;;;4975168;28;20030;-90
2022/11/05 11:15:49;;;;;;;27.83;25.55;;;14.70;99.20;;;;;;4993162;28;20041;-94
2022/11/05 11:18:41;;;;;;;25.95;23.73;;;14.70;99.90;;;;;;5000468;28;20057;-90
2022/11/05 11:21:22;;;;;;;26.83;24.83;;;14.80;99.40;;;;;;4959863;28;20038;-90
2022/11/05 11:24:01;;;;;;;36.03;33.72;;;14.80;99.20;;;;;;4994649;28;20072;-84
2022/11/05 11:26:32;;;;;;;23.08;21.02;;;14.90;99.90;;;;;;4977949;28;20045;-89
2022/11/05 11:29:19;;;;;;;25.08;23.02;;;15.00;99.20;;;;;;4997251;28;20034;-85
2022/11/05 11:31:45;;;;;;;30.88;28.58;;;15.10;99.90;;;;;;4975719;28;20046;-87
2022/11/05 11:34:27;;;;;;;24.35;22.63;;;15.10;98.90;;;;;;4996285;28;20030;-89
2022/11/05 11:36:56;;;;;;;26.85;24.40;;;15.10;97.00;;;;;;4984253;28;20430;-89
2022/11/05 11:39:27;;;;;;;26.30;24.33;;;15.10;98.30;;;;;;4995719;28;20038;-91
2022/11/05 11:41:58;;;;;;;27.60;25.23;;;15.10;97.30;;;;;;4991783;28;20035;-86
2022/11/05 11:44:33;;;;;;;25.38;23.27;;;15.20;97.70;;;;;;4991027;28;20053;-92
2022/11/05 11:47:04;;;;;;;27.50;25.70;;;15.20;96.70;;;;;;5009880;28;20522;-88
2022/11/05 11:49:46;;;;;;;26.25;24.33;;;15.30;97.20;;;;;;4993160;28;20046;-89
2022/11/05 11:52:18;;;;;;;26.80;25.23;;;15.40;97.00;;;;;;4983122;28;20035;-93
2022/11/05 11:54:44;;;;;;;26.25;24.52;;;15.40;99.20;;;;;;4995194;28;20041;-92
2022/11/05 11:57:20;;;;;;;27.35;25.50;;;15.50;96.00;;;;;;4978742;28;20027;-89
2022/11/05 11:59:46;;;;;;;24.63;22.77;;;15.50;95.40;;;;;;4989569;28;20046;-92
2022/11/05 12:02:35;;;;;;;25.90;23.88;;;15.60;96.20;;;;;;4992560;28;20026;-87
2022/11/05 12:05:13;;;;;;;27.50;25.35;;;15.80;97.20;;;;;;4980749;28;20529;-86
2022/11/05 12:07:52;;;;;;;28.63;26.58;;;15.80;94.70;;;;;;4993320;28;20726;-88
2022/11/05 12:10:53;;;;;;;27.13;25.17;;;15.90;95.50;;;;;;4992623;28;20038;-86
2022/11/05 12:13:19;;;;;;;25.35;23.30;;;15.90;94.40;;;;;;4991659;28;20026;-87
2022/11/05 12:15:49;;;;;;;26.80;24.95;;;15.90;94.90;;;;;;4992786;28;20038;-83
2022/11/05 12:18:28;;;;;;;27.02;25.08;;;15.80;95.30;;;;;;4978507;28;20046;-81
2022/11/05 12:21:19;;;;;;;29.42;27.30;;;15.80;97.50;;;;;;4968150;28;20038;-78
2022/11/05 12:24:00;;;;;;;28.60;26.90;;;15.80;95.40;;;;;;4973154;28;20035;-81
2022/11/05 12:26:38;;;;;;;27.20;25.00;;;15.80;95.30;;;;;;4984135;28;20054;-81
2022/11/05 12:29:13;;;;;;;26.70;25.02;;;15.90;94.40;;;;;;4991379;28;20049;-80
2022/11/05 12:32:16;;;;;;;28.13;26.13;;;15.90;94.90;;;;;;4992429;28;20030;-81
2022/11/05 12:35:01;;;;;;;41.53;39.05;;;15.90;94.50;;;;;;4992920;28;20050;-80
2022/11/05 12:37:36;;;;;;;31.63;28.77;;;15.90;97.20;;;;;;4994609;28;20057;-80
2022/11/05 12:40:24;;;;;;;30.27;28.10;;;16.00;95.70;;;;;;4992659;28;20045;-89
2022/11/05 12:43:01;;;;;;;29.95;27.52;;;16.00;95.60;;;;;;4955227;28;20058;-84
2022/11/05 12:45:47;;;;;;;31.33;29.02;;;16.10;95.50;;;;;;4968762;28;20041;-84
2022/11/05 12:48:38;;;;;;;35.33;32.72;;;16.20;95.90;;;;;;4986523;28;20245;-84
2022/11/05 12:51:07;;;;;;;37.25;33.35;;;16.20;95.80;;;;;;4982658;28;20038;-84
2022/11/05 12:54:10;;;;;;;40.40;37.30;;;16.20;94.90;;;;;;4979662;28;20034;-84
2022/11/05 12:56:48;;;;;;;31.52;28.85;;;16.30;97.90;;;;;;4988056;28;20030;-84
2022/11/05 12:59:20;;;;;;;41.00;36.47;;;16.30;96.00;;;;;;4994034;28;20029;-84
2022/11/05 13:01:49;;;;;;;30.80;28.42;;;16.40;96.10;;;;;;5000494;28;20113;-84
2022/11/05 13:04:57;;;;;;;31.85;29.50;;;16.40;94.00;;;;;;4989334;28;20037;-84
2022/11/05 13:07:31;;;;;;;36.80;32.28;;;16.40;97.40;;;;;;4983528;28;20050;-84
2022/11/05 13:10:28;;;;;;;33.15;29.77;;;16.40;97.80;;;;;;4992805;28;20446;-84
2022/11/05 13:13:11;;;;;;;29.05;27.02;;;16.50;96.10;;;;;;4993756;28;20033;-84
2022/11/05 13:16:04;;;;;;;28.65;26.27;;;16.40;93.30;;;;;;5003461;28;20042;-84
2022/11/05 13:18:37;;;;;;;28.88;26.77;;;16.40;95.00;;;;;;4972198;28;20098;-84
2022/11/05 13:21:05;;;;;;;34.13;30.73;;;16.40;95.00;;;;;;4973778;28;20041;-84
2022/11/05 13:23:43;;;;;;;28.90;26.80;;;16.40;94.50;;;;;;4956554;28;20538;-84
2022/11/05 13:26:36;;;;;;;30.55;28.13;;;16.40;94.50;;;;;;4958316;28;20075;-84
2022/11/05 13:29:06;;;;;;;27.70;25.75;;;16.30;93.50;;;;;;4924452;29;20392;-84
2022/11/05 13:31:37;;;;;;;29.75;27.35;;;16.30;93.80;;;;;;4930509;28;20256;-85